Time;durP1;ratioP1;P1;durP2;ratioP2;P2;SDS_P1;SDS_P2;PMS_P1;PMS_P2;Temp;Humidity;BMP_temperature;BMP_pressure;BME280_temperature;BME280_humidity;BME280_pressure;Samples;Min_cycle;Max_cycle;Signal;HPM_P1;HPM_P2
2021/03/16 00:01:45;;;;;;;180.50;73.57;;;;;;;-2.05;74.20;98225.95;4126367;85;21564;-87
2021/03/16 00:07:47;;;;;;;202.00;80.80;;;;;;;-2.26;73.97;98228.17;4124600;84;21337;-86
2021/03/16 00:13:48;;;;;;;198.80;83.33;;;;;;;-2.23;74.72;98232.91;4117951;84;21231;-87
2021/03/16 00:19:50;;;;;;;197.73;83.43;;;;;;;-2.31;74.50;98233.13;4134162;85;21710;-86
2021/03/16 00:25:52;;;;;;;190.13;80.03;;;;;;;-2.39;74.66;98235.22;4127363;84;21676;-86
2021/03/16 00:31:54;;;;;;;183.60;79.40;;;;;;;-2.36;74.98;98239.16;4135840;84;21168;-85
2021/03/16 00:37:56;;;;;;;185.83;80.07;;;;;;;-2.23;74.93;98239.08;4131800;84;21679;-85
2021/03/16 00:43:57;;;;;;;195.47;81.00;;;;;;;-2.29;75.09;98247.55;4138956;84;21210;-85
2021/03/16 00:50:03;;;;;;;181.03;78.13;;;;;;;-2.19;75.19;98242.70;4139586;84;21209;-85
2021/03/16 00:56:05;;;;;;;184.50;75.27;;;;;;;-2.26;75.31;98245.05;4140559;84;21169;-85
2021/03/16 01:02:08;;;;;;;171.80;73.10;;;;;;;-2.43;75.00;98243.64;4146215;84;21206;-84
2021/03/16 01:08:10;;;;;;;171.13;72.67;;;;;;;-2.50;75.19;98246.50;4155617;84;21319;-83
2021/03/16 01:14:11;;;;;;;155.77;68.97;;;;;;;-2.43;75.79;98241.50;4149809;84;21224;-83
2021/03/16 01:20:22;;;;;;;169.40;70.37;;;;;;;-2.12;75.72;98243.59;4125711;84;21195;-84
2021/03/16 01:26:24;;;;;;;142.23;63.00;;;;;;;-2.21;75.45;98237.42;4116630;84;21187;-83
2021/03/16 01:32:25;;;;;;;155.93;65.83;;;;;;;-1.98;75.85;98244.27;4109960;85;21185;-82
2021/03/16 01:38:29;;;;;;;149.23;63.23;;;;;;;-2.04;75.19;98230.77;4125793;84;21335;-84
2021/03/16 01:44:30;;;;;;;149.63;62.80;;;;;;;-2.18;75.25;98235.45;4107454;85;21692;-85
2021/03/16 01:50:33;;;;;;;152.13;67.10;;;;;;;-2.31;75.19;98225.63;4119903;84;21220;-84
2021/03/16 01:56:38;;;;;;;164.63;68.47;;;;;;;-2.35;75.23;98217.97;4130412;84;21239;-82
2021/03/16 02:02:58;;;;;;;145.57;63.67;;;;;;;-2.65;75.16;98222.80;4137001;84;21356;-82
2021/03/16 02:09:36;;;;;;;147.83;63.40;;;;;;;-2.74;75.85;98238.81;4136612;84;21330;-82
2021/03/16 02:16:00;;;;;;;143.50;62.47;;;;;;;-2.53;75.91;98237.73;4138340;84;22149;-81
2021/03/16 02:22:23;;;;;;;142.20;58.80;;;;;;;-2.59;76.30;98241.12;4149635;84;21199;-82
2021/03/16 02:29:01;;;;;;;151.53;65.43;;;;;;;-2.61;75.82;98241.97;4146965;84;21781;-81
2021/03/16 02:35:23;;;;;;;138.57;61.20;;;;;;;-2.51;76.13;98245.73;4118697;84;21194;-82
2021/03/16 02:41:48;;;;;;;142.73;62.83;;;;;;;-2.53;75.76;98247.13;4134664;85;21208;-82
2021/03/16 02:48:10;;;;;;;148.13;64.20;;;;;;;-2.66;75.96;98250.70;4136670;84;21243;-83
2021/03/16 02:54:33;;;;;;;151.23;64.77;;;;;;;-2.61;76.54;98250.55;4149045;84;21585;-82
2021/03/16 03:00:54;;;;;;;164.27;70.30;;;;;;;-2.45;76.67;98251.20;4149171;84;21167;-83
2021/03/16 03:07:17;;;;;;;131.20;57.70;;;;;;;-2.31;76.41;98257.79;4137932;84;21151;-82
2021/03/16 03:13:37;;;;;;;142.90;62.07;;;;;;;-2.38;76.37;98263.59;4101022;84;25602;-84
2021/03/16 03:19:57;;;;;;;133.63;59.00;;;;;;;-2.26;76.43;98267.05;4175896;84;21261;-83
2021/03/16 03:26:26;;;;;;;144.47;61.43;;;;;;;-2.15;76.27;98258.42;4144067;84;21648;-82
2021/03/16 03:32:46;;;;;;;130.27;61.53;;;;;;;-2.11;76.04;98269.30;4140727;84;21216;-83
2021/03/16 03:39:07;;;;;;;148.97;64.37;;;;;;;-2.18;75.70;98267.63;4142938;84;21245;-82
2021/03/16 03:45:30;;;;;;;129.67;58.67;;;;;;;-2.46;75.60;98272.38;4142590;84;21240;-84
2021/03/16 03:51:51;;;;;;;135.03;57.77;;;;;;;-2.61;76.10;98269.30;4139508;84;21199;-83
2021/03/16 03:58:12;;;;;;;131.10;58.30;;;;;;;-2.55;76.27;98269.44;4142535;84;22135;-82
2021/03/16 04:04:32;;;;;;;130.13;59.43;;;;;;;-2.47;76.14;98276.70;4148476;84;37324;-83
2021/03/16 04:10:52;;;;;;;126.90;56.03;;;;;;;-2.73;75.95;98279.80;4137181;83;22377;-83
2021/03/16 04:17:12;;;;;;;126.10;55.27;;;;;;;-2.74;76.33;98287.59;4115815;86;21201;-83
2021/03/16 04:23:33;;;;;;;125.50;55.53;;;;;;;-2.76;76.25;98293.80;4114396;86;21146;-84
2021/03/16 04:29:53;;;;;;;133.20;60.30;;;;;;;-2.83;76.20;98294.22;4111907;86;21625;-83
2021/03/16 04:36:13;;;;;;;125.23;58.23;;;;;;;-3.03;76.03;98289.89;4116588;86;21673;-83
2021/03/16 04:42:34;;;;;;;129.70;57.10;;;;;;;-3.05;76.19;98297.45;4117064;84;30285;-83
2021/03/16 04:48:54;;;;;;;127.33;55.13;;;;;;;-3.17;76.13;98302.00;4117657;85;21672;-83
2021/03/16 04:55:14;;;;;;;131.23;58.93;;;;;;;-3.31;76.02;98312.76;4117510;85;21204;-82
2021/03/16 05:01:35;;;;;;;130.53;55.33;;;;;;;-3.27;76.77;98316.41;4116292;85;21197;-86
2021/03/16 05:07:55;;;;;;;134.73;58.03;;;;;;;-3.24;76.58;98315.80;4121926;84;21354;-82
2021/03/16 05:14:15;;;;;;;141.27;62.30;;;;;;;-3.10;76.91;98315.75;4119140;85;21220;-83
2021/03/16 05:20:36;;;;;;;122.20;50.70;;;;;;;-3.12;76.71;98321.17;4130896;82;31241;-83
2021/03/16 05:26:56;;;;;;;135.10;59.07;;;;;;;-3.17;76.86;98321.28;4135176;85;21198;-82
2021/03/16 05:33:19;;;;;;;139.97;61.93;;;;;;;-3.33;77.51;98321.63;4144262;85;21634;-82
2021/03/16 05:39:39;;;;;;;138.97;62.00;;;;;;;-3.19;77.45;98328.84;4133873;85;26058;-82
2021/03/16 05:45:59;;;;;;;134.63;57.67;;;;;;;-3.08;77.74;98334.98;4135082;85;21717;-81
2021/03/16 05:52:20;;;;;;;123.93;55.17;;;;;;;-2.95;77.67;98354.24;4126893;85;21171;-83
2021/03/16 05:58:41;;;;;;;139.83;63.10;;;;;;;-2.84;77.49;98350.23;4132962;85;21342;-83
2021/03/16 06:05:05;;;;;;;153.57;68.27;;;;;;;-2.79;77.83;98356.83;4133795;85;21696;-82
2021/03/16 06:11:26;;;;;;;147.67;67.60;;;;;;;-2.61;78.54;98363.88;4140688;85;21130;-82
2021/03/16 06:17:52;;;;;;;143.73;65.83;;;;;;;-2.31;78.41;98361.00;4141324;85;21228;-83
2021/03/16 06:24:14;;;;;;;115.25;55.73;;;;;;;-1.96;79.11;98364.13;4130687;85;21194;-82
2021/03/16 06:30:36;;;;;;;140.60;65.00;;;;;;;-1.41;79.35;98370.64;4118330;85;21181;-83
2021/03/16 06:37:00;;;;;;;149.73;66.53;;;;;;;-0.83;78.88;98385.04;4129511;85;21207;-83
2021/03/16 06:43:24;;;;;;;134.40;64.00;;;;;;;-0.29;78.63;98391.90;4125781;85;21292;-85
2021/03/16 06:49:44;;;;;;;139.53;65.60;;;;;;;-0.08;77.72;98403.55;4122705;85;21161;-83
2021/03/16 06:56:05;;;;;;;145.60;68.47;;;;;;;-0.23;77.36;98403.27;4125063;85;21217;-84
2021/03/16 07:02:29;;;;;;;136.40;59.77;;;;;;;-0.25;77.63;98418.38;4132317;85;21607;-84
2021/03/16 07:08:50;;;;;;;126.50;61.33;;;;;;;0.03;78.01;98418.25;4132786;84;21572;-85
2021/03/16 07:15:12;;;;;;;133.50;65.67;;;;;;;0.29;78.10;98416.05;4130525;84;21226;-84
2021/03/16 07:21:39;;;;;;;123.38;59.90;;;;;;;0.70;78.52;98418.36;4130394;84;21248;-84
2021/03/16 07:28:03;;;;;;;123.13;64.27;;;;;;;1.36;78.42;98425.55;4130701;84;21244;-84
2021/03/16 07:34:25;;;;;;;134.67;64.47;;;;;;;1.98;78.39;98430.12;4138246;84;21206;-84
2021/03/16 07:40:47;;;;;;;159.00;76.65;;;;;;;2.59;78.12;98434.55;4120832;84;21695;-84
2021/03/16 07:47:07;;;;;;;165.77;79.45;;;;;;;2.82;77.28;98442.45;4187162;83;22506;-85
2021/03/16 07:53:29;;;;;;;185.78;93.65;;;;;;;2.76;76.87;98447.30;4188010;83;21183;-85
2021/03/16 08:00:06;;;;;;;182.53;96.12;;;;;;;2.73;76.74;98454.73;4188237;83;21206;-86
2021/03/16 08:06:36;;;;;;;191.77;97.02;;;;;;;2.97;77.40;98460.72;4584505;76;22598;-86
2021/03/16 08:13:02;;;;;;;195.75;93.65;;;;;;;3.48;77.03;98455.94;4489210;78;21314;-87
2021/03/16 08:19:38;;;;;;;168.73;83.37;;;;;;;4.16;76.86;98456.19;4492447;78;21176;-87
2021/03/16 08:26:00;;;;;;;186.15;89.52;;;;;;;4.48;75.72;98464.59;4489958;78;21125;-87
2021/03/16 08:32:23;;;;;;;175.35;84.07;;;;;;;4.45;75.43;98464.48;4488014;78;21137;-88
2021/03/16 08:38:44;;;;;;;184.80;90.05;;;;;;;4.29;75.61;98474.53;4474637;78;21302;-88
2021/03/16 08:45:06;;;;;;;184.70;91.40;;;;;;;4.32;75.26;98477.90;4481705;78;21179;-88
2021/03/16 08:51:28;;;;;;;182.72;90.80;;;;;;;4.40;75.45;98476.37;4484159;78;21156;-88
2021/03/16 08:57:49;;;;;;;154.15;73.45;;;;;;;4.60;75.25;98480.00;4485323;77;21493;-88
2021/03/16 09:04:13;;;;;;;107.45;53.80;;;;;;;4.79;75.40;98481.47;4496486;78;21221;-88
2021/03/16 09:10:33;;;;;;;97.22;47.95;;;;;;;4.97;75.14;98481.89;4498305;78;21201;-88
2021/03/16 09:16:55;;;;;;;97.40;49.73;;;;;;;5.08;74.88;98484.30;4503863;78;21164;-88
2021/03/16 09:23:15;;;;;;;97.82;48.90;;;;;;;5.09;74.61;98486.66;4498662;78;21168;-88
2021/03/16 09:29:38;;;;;;;88.52;46.95;;;;;;;5.11;74.95;98476.25;4197928;76;288339;-88
2021/03/16 09:36:01;;;;;;;79.53;42.93;;;;;;;5.20;74.74;98480.92;4086552;86;21249;-89
2021/03/16 09:42:36;;;;;;;79.77;39.80;;;;;;;5.25;74.69;98489.36;4083638;86;21232;-89
2021/03/16 09:48:56;;;;;;;69.77;37.17;;;;;;;5.62;74.63;98490.04;4084256;85;21363;-88
2021/03/16 09:55:00;;;;;;;79.65;40.10;;;;;;;7.11;75.17;98489.12;4077605;86;21188;-89
2021/03/16 10:01:04;;;;;;;71.47;40.20;;;;;;;7.93;72.71;98500.29;4079167;86;21829;-89
2021/03/16 10:07:07;;;;;;;79.75;44.30;;;;;;;7.64;70.42;98502.39;4146803;83;32056;-89
2021/03/16 10:13:10;;;;;;;78.10;42.53;;;;;;;7.61;70.34;98497.67;4185153;83;21241;-88
2021/03/16 10:19:22;;;;;;;73.17;42.43;;;;;;;8.44;69.16;98493.73;4187751;83;21193;-88
2021/03/16 10:25:26;;;;;;;83.97;48.08;;;;;;;9.34;65.13;98488.97;4161576;84;21652;-90
2021/03/16 10:31:32;;;;;;;75.17;44.93;;;;;;;9.69;64.08;98484.91;4160705;84;21240;-90
2021/03/16 10:37:39;;;;;;;79.47;46.75;;;;;;;9.99;66.40;98490.35;4156144;84;21218;-88
2021/03/16 10:43:41;;;;;;;87.78;49.00;;;;;;;9.86;63.01;98488.34;4156468;83;22048;-90
2021/03/16 10:49:43;;;;;;;88.07;50.38;;;;;;;9.28;64.73;98476.83;4154918;84;21352;-88
2021/03/16 10:55:44;;;;;;;100.20;54.70;;;;;;;8.89;64.37;98476.28;4156990;84;21162;-88
2021/03/16 11:01:46;;;;;;;102.10;55.60;;;;;;;8.53;65.09;98478.45;4151436;84;21789;-88
2021/03/16 11:07:47;;;;;;;107.40;59.40;;;;;;;8.33;65.37;98478.42;4097412;85;21262;-88
2021/03/16 11:13:49;;;;;;;117.25;59.53;;;;;;;8.14;65.28;98486.72;4066640;80;31749;-90
2021/03/16 11:19:51;;;;;;;105.25;58.42;;;;;;;8.17;64.89;98481.89;4019942;86;21739;-90
2021/03/16 11:25:53;;;;;;;96.97;54.23;;;;;;;8.30;65.60;98486.75;4084285;85;21676;-87
2021/03/16 11:31:56;;;;;;;100.75;53.90;;;;;;;8.31;64.97;98486.18;4082838;85;21216;-88
2021/03/16 11:38:17;;;;;;;88.30;50.15;;;;;;;8.22;64.94;98477.48;4102060;85;35482;-89
2021/03/16 11:44:38;;;;;;;79.77;44.13;;;;;;;8.41;64.39;98468.56;4142605;85;21220;-89
2021/03/16 11:50:58;;;;;;;65.90;36.03;;;;;;;9.13;63.72;98463.45;4162828;85;21868;-88
2021/03/16 11:57:18;;;;;;;53.92;27.73;;;;;;;9.63;63.37;98474.94;4268542;82;30635;-88
2021/03/16 12:03:38;;;;;;;39.18;23.50;;;;;;;9.46;62.89;98473.64;4327489;81;21208;-88
2021/03/16 12:09:58;;;;;;;32.67;20.30;;;;;;;8.99;62.16;98470.15;4336527;80;21176;-87
2021/03/16 12:16:18;;;;;;;26.75;16.85;;;;;;;8.64;61.92;98464.34;4342574;80;21192;-88
2021/03/16 12:22:39;;;;;;;37.63;22.13;;;;;;;9.05;61.79;98461.81;4331129;81;21519;-88
2021/03/16 12:28:59;;;;;;;48.35;27.60;;;;;;;9.73;60.57;98454.28;4322513;81;21208;-88
2021/03/16 12:35:20;;;;;;;65.62;36.58;;;;;;;9.83;60.41;98454.36;4332424;80;21226;-90
2021/03/16 12:41:40;;;;;;;66.53;35.30;;;;;;;10.16;60.66;98451.42;4341180;80;21264;-88
2021/03/16 12:48:00;;;;;;;61.35;33.58;;;;;;;9.92;60.14;98458.89;4338040;80;21191;-90
2021/03/16 12:54:22;;;;;;;56.98;32.88;;;;;;;10.06;60.51;98456.22;4340037;80;28476;-89
2021/03/16 13:00:42;;;;;;;61.60;33.92;;;;;;;9.91;59.81;98460.06;4298934;80;21213;-89
2021/03/16 13:07:03;;;;;;;53.45;31.93;;;;;;;9.70;60.27;98461.30;4252991;81;21577;-88
2021/03/16 13:13:23;;;;;;;47.90;28.98;;;;;;;9.90;60.12;98469.41;4246677;82;21186;-90
2021/03/16 13:19:44;;;;;;;35.43;21.05;;;;;;;9.40;59.71;98488.81;4247004;82;21283;-88
2021/03/16 13:26:04;;;;;;;35.25;20.45;;;;;;;8.57;60.34;98492.89;4244551;82;21656;-90
2021/03/16 13:32:24;;;;;;;32.78;16.80;;;;;;;7.57;61.07;98497.42;4245349;82;21349;-90
2021/03/16 13:38:44;;;;;;;32.38;17.05;;;;;;;6.78;61.45;98495.14;4243951;82;21164;-89
2021/03/16 13:45:07;;;;;;;24.77;14.45;;;;;;;6.32;62.09;98507.89;4244929;82;21136;-89
2021/03/16 13:51:27;;;;;;;24.67;14.85;;;;;;;5.94;62.58;98500.28;4243655;82;21330;-89
2021/03/16 13:57:48;;;;;;;24.37;14.68;;;;;;;5.72;62.95;98509.07;4241779;82;21349;-88
2021/03/16 14:04:09;;;;;;;25.62;13.75;;;;;;;5.28;63.79;98509.04;4245860;81;21231;-88
2021/03/16 14:10:30;;;;;;;33.92;19.23;;;;;;;5.03;65.21;98511.72;4295477;81;21216;-88
2021/03/16 14:16:50;;;;;;;33.80;19.12;;;;;;;4.69;69.46;98504.47;4291678;81;21161;-87
2021/03/16 14:23:10;;;;;;;35.00;18.42;;;;;;;4.46;67.65;98508.86;4297946;81;21976;-90
2021/03/16 14:29:30;;;;;;;36.15;20.10;;;;;;;4.48;68.40;98512.02;4293440;81;21176;-88
2021/03/16 14:35:50;;;;;;;32.73;17.80;;;;;;;4.69;69.40;98518.02;4294085;80;21826;-90
2021/03/16 14:42:10;;;;;;;36.50;21.23;;;;;;;4.85;70.59;98512.03;4296902;81;21196;-89
2021/03/16 14:48:30;;;;;;;48.87;25.60;;;;;;;4.81;70.33;98518.50;4295445;81;21605;-87
2021/03/16 14:54:50;;;;;;;52.03;28.30;;;;;;;4.95;70.91;98518.09;4296112;81;21227;-88
2021/03/16 15:01:11;;;;;;;39.23;20.23;;;;;;;4.93;70.78;98503.53;4263752;79;28953;-88
2021/03/16 15:07:31;;;;;;;33.48;17.42;;;;;;;4.81;71.22;98509.80;4125889;84;21225;-88
2021/03/16 15:13:52;;;;;;;33.75;17.37;;;;;;;4.58;71.05;98518.30;4114856;86;22238;-89
2021/03/16 15:20:13;;;;;;;36.55;20.75;;;;;;;4.19;72.72;98519.16;4115839;86;21774;-87
2021/03/16 15:26:33;;;;;;;42.90;21.73;;;;;;;4.09;72.80;98530.47;4116551;86;21212;-89
2021/03/16 15:32:53;;;;;;;35.03;18.77;;;;;;;4.11;73.10;98536.89;4122106;86;21814;-88
2021/03/16 15:39:13;;;;;;;44.98;22.73;;;;;;;4.14;73.23;98537.00;4118088;86;21216;-88
2021/03/16 15:45:34;;;;;;;40.70;23.60;;;;;;;3.93;73.51;98541.78;4119960;86;21415;-87
2021/03/16 15:51:54;;;;;;;69.45;35.73;;;;;;;3.83;74.83;98545.53;4114816;86;21177;-88
2021/03/16 15:58:14;;;;;;;57.62;29.10;;;;;;;3.68;74.13;98543.54;4119894;86;21185;-87
2021/03/16 16:04:35;;;;;;;63.38;32.30;;;;;;;3.61;75.06;98550.88;4127005;84;21225;-87
2021/03/16 16:10:55;;;;;;;55.95;31.25;;;;;;;3.43;75.31;98555.51;4155618;85;21204;-87
2021/03/16 16:17:15;;;;;;;69.67;34.48;;;;;;;3.44;75.43;98562.48;4135048;85;22106;-87
2021/03/16 16:23:35;;;;;;;63.15;34.27;;;;;;;3.45;75.34;98569.47;4146398;85;21248;-88
2021/03/16 16:29:55;;;;;;;72.62;37.95;;;;;;;3.46;75.73;98565.66;4145963;85;21366;-89
2021/03/16 16:36:16;;;;;;;78.85;40.03;;;;;;;3.46;75.74;98571.83;4158356;85;21778;-87
2021/03/16 16:42:37;;;;;;;81.70;40.33;;;;;;;3.38;76.16;98582.23;4148488;85;21212;-88
2021/03/16 16:48:57;;;;;;;73.10;36.85;;;;;;;3.45;76.14;98590.56;4146410;85;21238;-87
2021/03/16 16:55:17;;;;;;;81.80;40.88;;;;;;;3.42;76.05;98598.00;4140598;85;21172;-87
2021/03/16 17:01:38;;;;;;;72.62;36.75;;;;;;;3.29;76.11;98596.41;4144199;85;21753;-87
2021/03/16 17:07:59;;;;;;;61.10;32.65;;;;;;;3.28;76.99;98620.53;4159518;84;21220;-88
2021/03/16 17:14:20;;;;;;;59.20;32.63;;;;;;;3.38;77.18;98624.17;4156944;84;21188;-87
2021/03/16 17:20:42;;;;;;;72.30;36.55;;;;;;;3.49;77.21;98639.39;4169444;84;21714;-87
2021/03/16 17:27:03;;;;;;;59.58;29.87;;;;;;;3.53;77.14;98641.64;4161320;84;21242;-86
2021/03/16 17:33:24;;;;;;;55.33;29.57;;;;;;;3.50;77.08;98650.43;4170781;84;21176;-88
2021/03/16 17:39:44;;;;;;;79.62;38.10;;;;;;;3.45;76.90;98666.87;4173339;84;21612;-88
2021/03/16 17:46:05;;;;;;;69.17;36.98;;;;;;;3.41;76.87;98683.58;4186425;84;21212;-88
2021/03/16 17:52:25;;;;;;;56.13;27.42;;;;;;;3.40;77.20;98688.19;4184934;84;21248;-87
2021/03/16 17:58:45;;;;;;;65.10;31.33;;;;;;;3.41;78.09;98684.92;4162568;84;21698;-87
2021/03/16 18:05:06;;;;;;;46.00;26.30;;;;;;;3.35;77.58;98691.13;4154275;84;21352;-87
2021/03/16 18:11:27;;;;;;;56.83;29.63;;;;;;;3.44;77.71;98689.11;4103852;85;21209;-88
2021/03/16 18:17:47;;;;;;;65.83;30.20;;;;;;;3.37;78.05;98690.21;4113787;85;21346;-87
2021/03/16 18:24:08;;;;;;;51.65;26.55;;;;;;;3.40;78.19;98694.18;4104791;85;21197;-88
2021/03/16 18:30:28;;;;;;;46.75;26.52;;;;;;;3.41;78.28;98687.08;4106920;85;21252;-89
2021/03/16 18:36:48;;;;;;;52.95;27.13;;;;;;;3.44;78.37;98699.14;4111779;85;21233;-87
2021/03/16 18:43:11;;;;;;;53.02;28.10;;;;;;;3.46;78.42;98711.77;4106113;85;21530;-86
2021/03/16 18:49:33;;;;;;;55.92;28.95;;;;;;;3.43;78.67;98706.45;4111058;85;21171;-89
2021/03/16 18:55:53;;;;;;;54.40;28.95;;;;;;;3.40;78.59;98705.00;4107842;85;21701;-88
2021/03/16 19:02:13;;;;;;;62.65;33.25;;;;;;;3.41;78.95;98706.02;4105862;85;21209;-86
2021/03/16 19:08:34;;;;;;;63.60;32.55;;;;;;;3.36;79.04;98687.84;4127262;85;21715;-87
2021/03/16 19:14:54;;;;;;;64.80;33.10;;;;;;;3.27;79.12;98693.91;4143278;85;21202;-87
2021/03/16 19:21:14;;;;;;;65.92;34.43;;;;;;;3.22;79.31;98696.27;4132086;85;21216;-87
2021/03/16 19:27:34;;;;;;;72.20;37.13;;;;;;;3.26;79.36;98705.86;4143118;85;21640;-87
2021/03/16 19:33:55;;;;;;;75.45;37.38;;;;;;;3.29;79.50;98710.02;4148433;85;21222;-86
2021/03/16 19:40:16;;;;;;;77.82;39.58;;;;;;;3.27;79.71;98704.18;4138177;85;21470;-86
2021/03/16 19:46:37;;;;;;;81.85;42.62;;;;;;;3.27;79.86;98702.83;4139222;85;21853;-87
2021/03/16 19:52:58;;;;;;;76.57;40.70;;;;;;;3.28;80.01;98710.36;4142986;85;21201;-87
2021/03/16 19:59:18;;;;;;;90.83;44.65;;;;;;;3.31;80.16;98713.75;4153666;85;21240;-87
2021/03/16 20:05:41;;;;;;;88.40;43.92;;;;;;;3.34;80.17;98720.64;4138127;84;21240;-87
2021/03/16 20:12:01;;;;;;;76.07;38.80;;;;;;;3.35;80.24;98720.09;4144191;84;21215;-87
2021/03/16 20:18:21;;;;;;;82.90;38.28;;;;;;;3.35;80.15;98722.80;4165505;84;21232;-90
2021/03/16 20:24:42;;;;;;;86.72;39.75;;;;;;;3.36;80.38;98725.16;4156869;84;21212;-87
2021/03/16 20:31:02;;;;;;;77.20;39.33;;;;;;;3.37;80.41;98727.31;4189041;84;21221;-87
2021/03/16 20:37:22;;;;;;;74.12;38.42;;;;;;;3.34;80.41;98734.72;4162301;84;21211;-86
2021/03/16 20:43:42;;;;;;;69.97;34.78;;;;;;;3.33;80.37;98732.59;4171185;84;21213;-86
2021/03/16 20:50:06;;;;;;;68.60;34.03;;;;;;;3.35;80.30;98742.53;4160885;84;21153;-87
2021/03/16 20:56:27;;;;;;;57.98;28.65;;;;;;;3.35;80.35;98744.44;4160542;84;21230;-88
2021/03/16 21:02:49;;;;;;;58.15;31.23;;;;;;;3.34;80.44;98746.34;4160187;84;21242;-86
2021/03/16 21:09:09;;;;;;;56.28;30.12;;;;;;;3.32;80.31;98744.52;4119900;84;22134;-87
2021/03/16 21:15:29;;;;;;;58.55;30.08;;;;;;;3.31;80.36;98747.02;4105203;85;21759;-86
2021/03/16 21:21:49;;;;;;;59.38;31.07;;;;;;;3.27;80.28;98749.36;4103584;85;21238;-86
2021/03/16 21:28:10;;;;;;;58.35;27.85;;;;;;;3.23;80.38;98747.88;3996998;84;10000055;-87
2021/03/16 21:34:31;;;;;;;62.53;31.80;;;;;;;3.22;80.38;98751.72;4110067;85;21159;-87
2021/03/16 21:40:52;;;;;;;65.03;32.03;;;;;;;3.18;80.45;98752.14;4108383;86;21197;-87
2021/03/16 21:47:12;;;;;;;62.50;32.55;;;;;;;3.15;80.51;98748.75;4109642;85;21728;-87
2021/03/16 21:53:32;;;;;;;66.77;32.93;;;;;;;3.13;80.56;98746.38;4111087;85;21206;-88
2021/03/16 21:59:52;;;;;;;68.45;33.50;;;;;;;3.15;80.50;98744.69;4113836;85;21383;-88
2021/03/16 22:06:12;;;;;;;64.00;32.42;;;;;;;3.16;80.65;98751.70;4115618;85;21233;-86
2021/03/16 22:12:33;;;;;;;75.83;36.77;;;;;;;3.12;80.74;98748.06;4141706;85;21208;-87
2021/03/16 22:25:43;;;;;;;75.32;37.10;;;;;;;3.13;80.65;98760.48;4106911;85;21204;-87
2021/03/16 22:32:03;;;;;;;72.85;36.73;;;;;;;3.04;80.92;98756.48;4141293;85;21217;-88
2021/03/16 22:38:23;;;;;;;72.60;36.65;;;;;;;3.05;81.03;98760.76;4134612;85;22506;-89
2021/03/16 22:44:46;;;;;;;68.62;36.23;;;;;;;3.06;81.01;98760.20;4135669;85;21280;-87
2021/03/16 22:51:06;;;;;;;77.47;38.10;;;;;;;3.08;81.09;98752.02;4158436;85;21261;-88
2021/03/16 22:57:26;;;;;;;78.90;37.70;;;;;;;3.12;81.21;98756.97;4133779;85;21346;-88
2021/03/16 23:03:46;;;;;;;80.85;37.95;;;;;;;3.15;81.15;98754.95;4152219;85;21214;-87
2021/03/16 23:10:10;;;;;;;74.37;37.03;;;;;;;3.11;81.16;98753.25;4162138;84;21183;-88
2021/03/16 23:16:32;;;;;;;68.45;36.08;;;;;;;3.05;81.11;98761.34;4161390;84;21239;-88
2021/03/16 23:22:52;;;;;;;69.07;37.15;;;;;;;3.10;81.23;98761.14;4176569;84;21217;-88
2021/03/16 23:29:12;;;;;;;72.20;34.45;;;;;;;3.14;81.28;98757.99;4175575;84;21378;-90
2021/03/16 23:35:33;;;;;;;61.63;33.53;;;;;;;3.06;81.22;98758.30;4175230;84;21235;-87
2021/03/16 23:41:53;;;;;;;71.45;35.83;;;;;;;3.02;81.26;98746.55;4168970;84;21200;-87
2021/03/16 23:48:16;;;;;;;68.33;36.10;;;;;;;3.03;81.28;98748.70;4192128;84;21343;-88
2021/03/16 23:54:36;;;;;;;66.70;34.43;;;;;;;3.00;81.30;98748.81;4165289;84;21256;-86
